Pagina principale
METAR-TAF:

METAR-TAF

Aeroporti :

Cambridge, Inghilterra

latitudine: 52-12N, longitudine: 000-11E, altezza: 15 m

Osservazione

Il bollettino è stato emesso 42 minuti fa, alle 09:50 UTC
Vento 11 kt da nord/nord-ovest
Temperature 13°C
Umidità 77%
Pressione 1008 hPa
Visibilità 10 km o più
Poco nuvoloso ad un'altezza di 1300 ft
Nubi sparse ad un'altezza di 2500 ft

METAR: EGSC 070950Z 34011KT 9999 FEW013 SCT025 13/09 Q1008

Ora: 11:32 (10:32 UTC)

Previsione

Il bollettino è stato emesso 1 ora e 5 minuti fa, alle 09:27 UTC
Previsione valida dal 07 alle 09 UTC al 07 alle 17 UTC
Vento 9 kt da ovest/nord-ovest
Visibilità 10 km o più
Poco nuvoloso ad un'altezza di 1200 ft
Nuvoloso ad un'altezza di 2500 ft
Probabilità 40% :
Temporaneamente
dal 07 alle 09 UTC al 07 alle 17 UTC
Visibilità: 7000 m
Nuvoloso ad un'altezza di 1200 ft
pioggia debole

TAF: EGSC 070927Z 0709/0717 29009KT 9999 FEW012 BKN025 PROB40 TEMPO 0709/0717 7000 -RA BKN012

Osservazioni e previsioni meteorologiche di più di 4000 aeroporti (messaggi METAR e TAF).

Le stazioni disponibili sono rappresentate dai dischi gialli e rossi sulla carta.

Puntare il mouse per vedere il nome della stazione.

Clicca sopra per visualizzare le osservazioni e previsioni meteorologiche.

Per cambiare la mappa : fare clic sui pulsanti verdi con una croce nera per ingrandire, il pulsante verde con un trattino per diminuire, o sulla freccia verde per le mappe adiacenti.


METAR-TAF: